createdAt,value
2023-05-14T00:01:03.357Z,10.68
2023-05-14T00:04:07.495Z,10.68
2023-05-14T00:07:11.988Z,10.66
2023-05-14T00:10:17.758Z,10.58
2023-05-14T00:13:21.861Z,10.51
2023-05-14T00:16:26.002Z,10.43
2023-05-14T00:19:30.102Z,10.35
2023-05-14T00:22:35.062Z,10.29
2023-05-14T00:25:39.306Z,10.27
2023-05-14T00:28:43.290Z,10.32
2023-05-14T00:31:47.309Z,10.38
2023-05-14T00:34:51.415Z,10.43
2023-05-14T00:37:55.627Z,10.42
2023-05-14T00:40:59.661Z,10.41
2023-05-14T00:44:04.168Z,10.38
2023-05-14T00:47:08.764Z,10.36
2023-05-14T00:50:14.886Z,10.36
2023-05-14T00:53:19.821Z,10.34
2023-05-14T00:56:24.940Z,10.35
2023-05-14T00:59:29.065Z,10.36
2023-05-14T01:02:33.125Z,10.35
2023-05-14T01:06:02.910Z,10.30
2023-05-14T01:09:20.623Z,10.21
2023-05-14T01:12:36.634Z,10.11
2023-05-14T01:15:45.421Z,10.03
2023-05-14T01:18:51.467Z,9.98
2023-05-14T01:21:55.509Z,10.01
2023-05-14T01:24:59.558Z,10.00
2023-05-14T01:28:13.513Z,9.98
2023-05-14T01:31:25.331Z,9.93
2023-05-14T01:34:31.476Z,9.91
2023-05-14T01:37:37.929Z,9.85
2023-05-14T01:40:45.645Z,9.78
2023-05-14T01:43:50.065Z,9.73
2023-05-14T01:46:54.080Z,9.72
2023-05-14T01:49:58.073Z,9.73
2023-05-14T01:53:02.133Z,9.72
2023-05-14T01:56:06.337Z,9.70
2023-05-14T01:59:10.558Z,9.68
2023-05-14T02:02:14.554Z,9.65
2023-05-14T02:05:19.304Z,9.60
2023-05-14T02:08:24.076Z,9.54
2023-05-14T02:11:28.093Z,9.51
2023-05-14T02:14:32.375Z,9.50
2023-05-14T02:17:36.846Z,9.51
2023-05-14T02:20:41.327Z,9.48
2023-05-14T02:23:45.296Z,9.34
2023-05-14T02:26:49.352Z,9.19
2023-05-14T02:29:53.479Z,9.11
2023-05-14T02:32:58.197Z,9.10
2023-05-14T02:36:02.234Z,9.12
2023-05-14T02:39:06.776Z,9.17
2023-05-14T02:42:10.886Z,9.18
2023-05-14T02:45:14.887Z,9.10
2023-05-14T02:48:19.013Z,9.07
2023-05-14T02:51:23.741Z,9.08
2023-05-14T02:54:27.773Z,9.00
2023-05-14T02:57:31.901Z,8.97
2023-05-14T03:00:36.121Z,8.94
2023-05-14T03:03:40.831Z,8.91
2023-05-14T03:06:45.156Z,8.88
2023-05-14T03:09:49.183Z,8.85
2023-05-14T03:12:53.286Z,8.82
2023-05-14T03:15:57.403Z,8.76
2023-05-14T03:19:01.489Z,8.72
2023-05-14T03:22:05.643Z,8.69
2023-05-14T03:25:10.071Z,8.68
2023-05-14T03:28:14.085Z,8.71
2023-05-14T03:31:18.250Z,8.73
2023-05-14T03:34:22.422Z,8.72
2023-05-14T03:37:26.455Z,8.73
2023-05-14T03:40:30.761Z,8.72
2023-05-14T03:43:35.290Z,8.68
2023-05-14T03:46:39.408Z,8.62
2023-05-14T03:49:43.547Z,8.58
2023-05-14T03:52:48.346Z,8.63
2023-05-14T03:55:52.501Z,8.75
2023-05-14T03:58:56.601Z,8.89
2023-05-14T04:02:00.634Z,9.00
2023-05-14T04:05:05.153Z,9.11
2023-05-14T04:08:09.252Z,9.21
2023-05-14T04:11:13.271Z,9.29
2023-05-14T04:14:17.296Z,9.38
2023-05-14T04:17:22.651Z,9.49
2023-05-14T04:20:27.331Z,9.58
2023-05-14T04:23:32.097Z,9.65
2023-05-14T04:26:36.223Z,9.70
2023-05-14T04:29:40.434Z,9.78
2023-05-14T04:32:44.663Z,9.88
2023-05-14T04:35:48.746Z,9.97
2023-05-14T04:38:52.798Z,10.07
2023-05-14T04:41:56.806Z,10.23
2023-05-14T04:45:01.134Z,10.39
2023-05-14T04:48:07.839Z,10.49
2023-05-14T04:51:12.140Z,10.61
2023-05-14T04:54:16.173Z,10.71
2023-05-14T04:57:20.261Z,10.83
2023-05-14T05:00:24.730Z,11.00
2023-05-14T05:03:29.067Z,11.17
2023-05-14T05:06:33.245Z,11.35
2023-05-14T05:09:37.456Z,11.49
2023-05-14T05:12:41.778Z,11.62
2023-05-14T05:15:46.147Z,11.72
2023-05-14T05:18:50.358Z,11.82
2023-05-14T05:21:57.416Z,11.90
2023-05-14T05:25:01.404Z,11.99
2023-05-14T05:28:05.373Z,12.11
2023-05-14T05:31:09.500Z,12.23
2023-05-14T05:34:13.584Z,12.38
2023-05-14T05:37:17.812Z,12.52
2023-05-14T05:40:22.174Z,12.65
2023-05-14T05:43:26.214Z,12.77
2023-05-14T05:46:30.420Z,12.87
2023-05-14T05:49:34.677Z,12.96
2023-05-14T05:52:39.483Z,13.06
2023-05-14T05:55:43.537Z,13.17
2023-05-14T05:58:47.966Z,13.29
2023-05-14T06:01:51.980Z,13.42
2023-05-14T06:04:56.204Z,13.56
2023-05-14T06:08:00.210Z,13.70
2023-05-14T06:11:04.740Z,13.83
2023-05-14T06:14:08.621Z,13.97
2023-05-14T06:17:12.553Z,14.10
2023-05-14T06:20:16.695Z,14.24
2023-05-14T06:23:20.900Z,14.39
2023-05-14T06:26:25.021Z,14.55
2023-05-14T06:29:29.042Z,14.72
2023-05-14T06:32:33.043Z,14.89
2023-05-14T06:35:37.275Z,15.06
2023-05-14T06:38:41.395Z,15.22
2023-05-14T06:41:45.601Z,15.37
2023-05-14T06:44:51.776Z,15.52
2023-05-14T06:47:55.957Z,15.64
2023-05-14T06:51:00.032Z,15.76
2023-05-14T06:54:04.024Z,15.89
2023-05-14T06:57:08.045Z,16.02
2023-05-14T07:00:14.331Z,16.16
2023-05-14T07:03:18.326Z,16.30
2023-05-14T07:06:22.853Z,16.44
2023-05-14T07:09:26.871Z,16.59
2023-05-14T07:12:30.821Z,16.74
2023-05-14T07:15:34.799Z,16.89
2023-05-14T07:18:39.142Z,17.03
2023-05-14T07:21:43.032Z,17.18
2023-05-14T07:24:47.253Z,17.30
2023-05-14T07:27:51.281Z,17.44
2023-05-14T07:30:55.714Z,17.57
2023-05-14T07:33:59.711Z,17.71
2023-05-14T07:37:03.933Z,17.85
2023-05-14T07:40:08.796Z,17.98
2023-05-14T07:43:12.884Z,18.12
2023-05-14T07:46:16.908Z,18.26
2023-05-14T07:49:21.222Z,18.41
2023-05-14T07:52:25.548Z,18.54
2023-05-14T07:55:29.664Z,18.66
2023-05-14T07:58:33.687Z,18.78
2023-05-14T08:01:39.345Z,18.88
2023-05-14T08:04:44.248Z,18.98
2023-05-14T08:07:48.293Z,19.08
2023-05-14T08:10:52.298Z,19.18
2023-05-14T08:13:56.528Z,19.29
2023-05-14T08:17:00.802Z,19.38
2023-05-14T08:20:07.561Z,19.47
2023-05-14T08:23:11.640Z,19.55
2023-05-14T08:26:15.757Z,19.65
2023-05-14T08:29:19.784Z,19.73
2023-05-14T08:32:24.296Z,19.80
2023-05-14T08:35:28.532Z,19.87
2023-05-14T08:38:32.750Z,19.92
2023-05-14T08:41:37.846Z,19.99
2023-05-14T08:44:52.544Z,20.07
2023-05-14T08:47:58.621Z,20.16
2023-05-14T08:51:03.497Z,20.24
2023-05-14T08:54:07.778Z,20.32
2023-05-14T08:57:13.228Z,20.38
2023-05-14T09:00:18.780Z,20.46
2023-05-14T09:03:23.949Z,20.53
2023-05-14T09:06:28.410Z,20.58
2023-05-14T09:09:33.473Z,20.63
2023-05-14T09:12:37.714Z,20.67
2023-05-14T09:15:41.812Z,20.73
2023-05-14T09:18:46.083Z,20.79
2023-05-14T09:21:50.663Z,20.86
2023-05-14T09:25:05.815Z,20.91
2023-05-14T09:28:09.794Z,20.96
2023-05-14T09:31:13.802Z,21.00
2023-05-14T09:34:25.765Z,21.02
2023-05-14T09:37:30.110Z,21.08
2023-05-14T09:40:34.130Z,21.14
2023-05-14T09:43:38.343Z,21.21
2023-05-14T09:46:42.362Z,21.25
2023-05-14T09:49:48.978Z,21.29
2023-05-14T09:52:55.750Z,21.37
2023-05-14T09:55:59.848Z,21.39
2023-05-14T09:59:04.340Z,21.44
2023-05-14T10:02:12.779Z,21.51
2023-05-14T10:05:17.744Z,21.58
2023-05-14T10:08:30.833Z,21.66
2023-05-14T10:11:38.117Z,21.72
2023-05-14T10:14:49.635Z,21.80
2023-05-14T10:17:59.083Z,21.92
2023-05-14T10:21:07.912Z,22.05
2023-05-14T10:24:13.150Z,22.20
2023-05-14T10:27:17.606Z,22.33
2023-05-14T10:30:25.616Z,22.45
2023-05-14T10:33:30.215Z,22.58
2023-05-14T10:36:34.436Z,22.71
2023-05-14T10:39:44.601Z,22.90
2023-05-14T10:42:48.724Z,23.10
2023-05-14T10:45:52.732Z,23.14
2023-05-14T10:48:56.950Z,23.06
2023-05-14T10:52:01.847Z,23.04
2023-05-14T10:55:12.772Z,23.09
2023-05-14T10:58:18.123Z,23.18
2023-05-14T11:01:24.262Z,23.29
2023-05-14T11:04:28.395Z,23.42
2023-05-14T11:07:40.602Z,23.52
2023-05-14T11:10:47.011Z,23.58
2023-05-14T11:13:52.530Z,23.51
2023-05-14T11:16:57.735Z,23.52
2023-05-14T11:20:02.301Z,23.53
2023-05-14T11:23:06.312Z,23.55
2023-05-14T11:26:11.383Z,23.56
2023-05-14T11:29:15.584Z,23.56
2023-05-14T11:32:20.289Z,23.58
2023-05-14T11:35:24.852Z,23.62
2023-05-14T11:38:28.749Z,23.64
2023-05-14T11:41:33.174Z,23.60
2023-05-14T11:44:37.086Z,23.54
2023-05-14T11:47:42.138Z,23.53
2023-05-14T11:50:51.177Z,23.53
2023-05-14T11:53:55.181Z,23.54
2023-05-14T11:57:01.950Z,23.50
2023-05-14T12:00:09.673Z,23.50
2023-05-14T12:03:13.885Z,23.50
2023-05-14T12:06:18.302Z,23.49
2023-05-14T12:09:23.146Z,23.46
2023-05-14T12:12:27.252Z,23.41
2023-05-14T12:15:31.269Z,23.36
2023-05-14T12:18:35.722Z,23.34
2023-05-14T12:21:40.736Z,23.26
2023-05-14T12:24:54.115Z,23.18
2023-05-14T12:27:58.186Z,23.10
2023-05-14T12:31:02.837Z,23.09
2023-05-14T12:34:06.755Z,23.15
2023-05-14T12:37:10.715Z,23.27
2023-05-14T12:40:14.777Z,23.34
2023-05-14T12:43:19.364Z,23.42
2023-05-14T12:46:23.731Z,23.45
2023-05-14T12:49:28.046Z,23.53
2023-05-14T12:55:38.939Z,23.77
2023-05-14T12:58:43.148Z,23.98
2023-05-14T13:01:47.148Z,24.22
2023-05-14T13:04:51.075Z,24.48
2023-05-14T13:07:55.107Z,24.82
2023-05-14T13:10:59.125Z,25.15
2023-05-14T13:14:03.838Z,25.48
2023-05-14T13:17:08.281Z,25.76
2023-05-14T13:20:12.311Z,26.01
2023-05-14T13:23:16.317Z,26.22
2023-05-14T13:26:20.310Z,26.49
2023-05-14T13:29:24.403Z,26.84
2023-05-14T13:32:28.371Z,27.13
2023-05-14T13:35:34.699Z,27.43
2023-05-14T13:38:39.081Z,27.66
2023-05-14T13:41:43.384Z,27.98
2023-05-14T13:44:47.390Z,28.33
2023-05-14T13:47:51.836Z,28.60
2023-05-14T13:50:56.023Z,28.84
2023-05-14T13:53:59.946Z,29.11
2023-05-14T13:57:04.455Z,29.27
2023-05-14T14:00:09.607Z,29.38
2023-05-14T14:03:13.754Z,29.53
2023-05-14T14:06:17.605Z,29.68
2023-05-14T14:09:22.077Z,29.80
2023-05-14T14:12:26.874Z,29.91
2023-05-14T14:15:30.929Z,29.99
2023-05-14T14:18:35.157Z,29.95
2023-05-14T14:21:42.745Z,29.98
2023-05-14T14:24:46.693Z,30.05
2023-05-14T14:27:51.173Z,29.97
2023-05-14T14:30:55.296Z,29.74
2023-05-14T14:33:59.112Z,29.40
2023-05-14T14:37:03.122Z,28.97
2023-05-14T14:40:10.532Z,28.61
2023-05-14T14:43:14.573Z,28.26
2023-05-14T14:46:18.846Z,27.95
2023-05-14T14:49:23.508Z,27.64
2023-05-14T14:52:28.314Z,27.34
2023-05-14T14:55:32.351Z,26.99
2023-05-14T14:58:36.775Z,26.62
2023-05-14T15:01:40.966Z,26.26
2023-05-14T15:04:45.118Z,25.97
2023-05-14T15:07:49.019Z,25.71
2023-05-14T15:10:53.456Z,25.50
2023-05-14T15:13:57.529Z,25.27
2023-05-14T15:17:01.723Z,25.06
2023-05-14T15:20:07.492Z,24.87
2023-05-14T15:23:11.768Z,24.65
2023-05-14T15:26:15.803Z,24.43
2023-05-14T15:29:20.222Z,24.22
2023-05-14T15:32:26.592Z,24.01
2023-05-14T15:35:30.703Z,23.85
2023-05-14T15:38:34.850Z,23.71
2023-05-14T15:41:39.045Z,23.63
2023-05-14T15:44:43.162Z,23.51
2023-05-14T15:47:47.190Z,23.37
2023-05-14T15:50:51.703Z,23.22
2023-05-14T15:53:55.818Z,23.12
2023-05-14T15:56:59.746Z,23.03
2023-05-14T16:00:14.609Z,22.98
2023-05-14T16:03:18.788Z,22.94
2023-05-14T16:06:22.925Z,23.01
2023-05-14T16:09:27.146Z,23.17
2023-05-14T16:12:31.158Z,23.29
2023-05-14T16:15:35.298Z,23.34
2023-05-14T16:18:40.961Z,23.35
2023-05-14T16:21:45.070Z,23.32
2023-05-14T16:24:48.984Z,23.24
2023-05-14T16:27:53.217Z,23.14
2023-05-14T16:30:57.316Z,23.05
2023-05-14T16:34:01.335Z,22.96
2023-05-14T16:37:05.359Z,22.87
2023-05-14T16:40:11.907Z,22.80
2023-05-14T16:43:15.936Z,22.88
2023-05-14T16:46:20.391Z,22.96
2023-05-14T16:49:24.481Z,22.98
2023-05-14T16:52:28.655Z,22.88
2023-05-14T16:55:32.576Z,22.73
2023-05-14T16:58:36.628Z,22.60
2023-05-14T17:01:41.993Z,22.47
2023-05-14T17:04:46.243Z,22.37
2023-05-14T17:07:50.219Z,22.27
2023-05-14T17:10:54.104Z,22.17
2023-05-14T17:13:57.012Z,22.05
2023-05-14T17:16:58.776Z,21.92
2023-05-14T17:20:05.931Z,21.79
2023-05-14T17:23:10.092Z,21.70
2023-05-14T17:26:14.079Z,21.61
2023-05-14T17:29:18.025Z,21.50
2023-05-14T17:32:22.103Z,21.39
2023-05-14T17:35:26.248Z,21.32
2023-05-14T17:38:30.465Z,21.22
2023-05-14T17:41:34.584Z,21.13
2023-05-14T17:44:38.602Z,21.06
2023-05-14T17:47:42.548Z,20.96
2023-05-14T17:50:46.627Z,20.83
2023-05-14T17:53:51.176Z,20.75
2023-05-14T17:56:55.698Z,20.67
2023-05-14T17:59:59.714Z,20.58
2023-05-14T18:03:03.825Z,20.48
2023-05-14T18:06:08.379Z,20.38
2023-05-14T18:09:12.385Z,20.28
2023-05-14T18:12:16.412Z,20.18
2023-05-14T18:15:20.513Z,20.07
2023-05-14T18:18:24.503Z,19.95
2023-05-14T18:21:28.762Z,19.82
2023-05-14T18:24:32.792Z,19.70
2023-05-14T18:27:39.544Z,19.59
2023-05-14T18:30:43.695Z,19.46
2023-05-14T18:33:47.891Z,19.35
2023-05-14T18:36:52.417Z,19.24
2023-05-14T18:39:56.434Z,19.13
2023-05-14T18:43:00.564Z,19.01
2023-05-14T18:46:04.560Z,18.90
2023-05-14T18:49:08.587Z,18.76
2023-05-14T18:52:13.253Z,18.63
2023-05-14T18:55:17.346Z,18.49
2023-05-14T18:58:21.352Z,18.35
2023-05-14T19:01:25.869Z,18.22
2023-05-14T19:04:33.326Z,18.07
2023-05-14T19:07:38.626Z,17.92
2023-05-14T19:10:42.944Z,17.82
2023-05-14T19:13:48.086Z,17.73
2023-05-14T19:16:52.203Z,17.66
2023-05-14T19:19:56.217Z,17.59
2023-05-14T19:23:00.235Z,17.54
2023-05-14T19:26:04.256Z,17.50
2023-05-14T19:29:08.265Z,17.44
2023-05-14T19:32:12.298Z,17.34
2023-05-14T19:35:16.702Z,17.25
2023-05-14T19:38:21.242Z,17.18
2023-05-14T19:41:26.082Z,17.12
2023-05-14T19:44:31.203Z,17.05
2023-05-14T19:47:35.173Z,16.99
2023-05-14T19:50:39.202Z,16.92
2023-05-14T19:53:43.241Z,16.87
2023-05-14T19:56:47.396Z,16.82
2023-05-14T19:59:51.387Z,16.77
2023-05-14T20:03:00.004Z,16.73
2023-05-14T20:06:04.242Z,16.69
2023-05-14T20:09:08.487Z,16.66
2023-05-14T20:12:13.383Z,16.63
2023-05-14T20:15:17.412Z,16.61
2023-05-14T20:18:21.425Z,16.57
2023-05-14T20:21:25.747Z,16.54
2023-05-14T20:24:29.751Z,16.50
2023-05-14T20:27:33.882Z,16.47
2023-05-14T20:30:38.042Z,16.45
2023-05-14T20:33:42.135Z,16.42
2023-05-14T20:36:46.251Z,16.39
2023-05-14T20:39:50.708Z,16.37
2023-05-14T20:42:54.907Z,16.35
2023-05-14T20:45:59.228Z,16.33
2023-05-14T20:49:03.327Z,16.30
2023-05-14T20:52:07.207Z,16.26
2023-05-14T20:55:11.565Z,16.24
2023-05-14T20:58:15.576Z,16.22
2023-05-14T21:01:19.642Z,16.21
2023-05-14T21:04:23.906Z,16.19
2023-05-14T21:07:28.874Z,16.17
2023-05-14T21:10:33.178Z,16.16
2023-05-14T21:13:37.189Z,16.13
2023-05-14T21:16:41.403Z,16.11
2023-05-14T21:19:45.531Z,16.10
2023-05-14T21:22:49.547Z,16.08
2023-05-14T21:25:55.023Z,16.05
2023-05-14T21:28:59.314Z,16.04
2023-05-14T21:32:03.449Z,16.02
2023-05-14T21:35:08.425Z,16.00
2023-05-14T21:38:12.614Z,15.98
2023-05-14T21:41:16.917Z,15.96
2023-05-14T21:44:22.202Z,15.95
2023-05-14T21:47:27.165Z,15.95
2023-05-14T21:50:31.277Z,15.93
2023-05-14T21:53:35.232Z,15.92
2023-05-14T21:56:39.256Z,15.90
2023-05-14T21:59:43.268Z,15.90
2023-05-14T22:02:47.327Z,15.89
2023-05-14T22:05:51.913Z,15.88
2023-05-14T22:08:55.924Z,15.87
2023-05-14T22:11:59.942Z,15.84
2023-05-14T22:15:05.427Z,15.82
2023-05-14T22:18:09.415Z,15.81
2023-05-14T22:21:13.743Z,15.81
2023-05-14T22:24:17.740Z,15.80
2023-05-14T22:27:21.756Z,15.78
2023-05-14T22:30:25.776Z,15.77
2023-05-14T22:33:30.099Z,15.76
2023-05-14T22:36:34.126Z,15.75
2023-05-14T22:39:38.139Z,15.74
2023-05-14T22:42:42.161Z,15.73
2023-05-14T22:45:46.161Z,15.72
2023-05-14T22:48:50.149Z,15.71
2023-05-14T22:51:54.510Z,15.69
2023-05-14T22:54:58.519Z,15.68
2023-05-14T22:58:02.849Z,15.68
2023-05-14T23:01:06.862Z,15.66
2023-05-14T23:04:10.882Z,15.68
2023-05-14T23:07:15.657Z,15.67
2023-05-14T23:10:19.834Z,15.67
2023-05-14T23:13:23.945Z,15.66
2023-05-14T23:16:28.163Z,15.66
2023-05-14T23:19:32.207Z,15.66
2023-05-14T23:22:36.306Z,15.65
2023-05-14T23:25:40.297Z,15.65
2023-05-14T23:28:44.293Z,15.66
2023-05-14T23:31:48.236Z,15.66
2023-05-14T23:34:52.270Z,15.65
2023-05-14T23:37:56.375Z,15.65
2023-05-14T23:41:00.396Z,15.66
2023-05-14T23:44:04.712Z,15.65
2023-05-14T23:47:08.930Z,15.64
2023-05-14T23:50:12.897Z,15.65
2023-05-14T23:53:17.436Z,15.65
2023-05-14T23:56:22.506Z,15.65
2023-05-14T23:59:26.739Z,15.65
